Time;durP1;ratioP1;P1;durP2;ratioP2;P2;SDS_P1;SDS_P2;PMS_P1;PMS_P2;Temp;Humidity;BMP_temperature;BMP_pressure;BME280_temperature;BME280_humidity;BME280_pressure;Samples;Min_cycle;Max_cycle;Signal;HPM_P1;HPM_P2
2023/05/07 00:01:51;;;;;;;5.07;4.57;;;;;;;15.62;88.19;98067.38;4170366;28;21248;-82
2023/05/07 00:03:54;;;;;;;5.70;5.20;;;;;;;15.58;89.59;98061.56;4167845;28;20718;-82
2023/05/07 00:05:58;;;;;;;6.13;5.60;;;;;;;15.55;88.76;98064.47;4170498;28;20682;-82
2023/05/07 00:08:01;;;;;;;6.23;5.20;;;;;;;15.55;88.59;98058.38;4170459;28;21207;-82
2023/05/07 00:10:06;;;;;;;8.27;5.70;;;;;;;15.49;89.52;98058.91;4169209;28;20687;-82
2023/05/07 00:12:11;;;;;;;14.53;5.77;;;;;;;15.48;88.63;98057.25;4168753;28;20690;-82
2023/05/07 00:14:14;;;;;;;6.37;4.93;;;;;;;15.46;89.15;98059.19;4167788;28;20798;-82
2023/05/07 00:16:17;;;;;;;7.00;5.17;;;;;;;15.43;90.23;98053.38;4169802;28;20640;-82
2023/05/07 00:18:22;;;;;;;5.37;4.87;;;;;;;15.41;89.28;98055.28;4169677;28;20671;-82
2023/05/07 00:20:26;;;;;;;7.17;4.97;;;;;;;15.39;90.22;98052.81;4168750;28;20662;-82
2023/05/07 00:22:30;;;;;;;5.50;4.97;;;;;;;15.37;88.98;98051.28;4170874;28;20627;-82
2023/05/07 00:24:33;;;;;;;6.63;4.60;;;;;;;15.36;88.98;98047.81;4173605;28;20655;-82
2023/05/07 00:26:36;;;;;;;5.70;5.20;;;;;;;15.31;90.44;98050.03;4149838;28;20681;-82
2023/05/07 00:28:41;;;;;;;6.77;5.00;;;;;;;15.29;89.01;98051.13;4158114;28;20653;-82
2023/05/07 00:30:44;;;;;;;5.20;4.47;;;;;;;15.29;90.21;98051.97;4154791;28;20677;-82
2023/05/07 00:32:48;;;;;;;6.70;4.90;;;;;;;15.27;89.67;98047.78;4159206;28;20647;-82
2023/05/07 00:34:52;;;;;;;5.17;4.37;;;;;;;15.24;90.79;98048.88;4158141;28;20644;-82
2023/05/07 00:36:55;;;;;;;4.93;4.40;;;;;;;15.20;89.73;98042.25;4174376;28;21056;-82
2023/05/07 00:39:01;;;;;;;5.10;4.37;;;;;;;15.17;90.42;98042.53;4170373;28;20713;-82
2023/05/07 00:41:05;;;;;;;5.13;4.40;;;;;;;15.17;90.40;98036.44;4158310;28;20721;-82
2023/05/07 00:43:08;;;;;;;7.83;4.40;;;;;;;15.15;90.42;98033.06;4156003;28;20646;-82
2023/05/07 00:45:13;;;;;;;5.23;4.23;;;;;;;15.13;89.25;98035.00;4176912;28;20627;-82
2023/05/07 00:47:16;;;;;;;4.67;4.20;;;;;;;15.09;90.17;98031.81;4177534;28;20685;-82
2023/05/07 00:49:19;;;;;;;5.13;4.07;;;;;;;15.08;88.97;98031.97;4170145;28;20639;-82
2023/05/07 00:51:23;;;;;;;4.60;4.20;;;;;;;15.05;88.96;98032.22;4171556;28;20968;-82
2023/05/07 00:53:26;;;;;;;6.63;4.47;;;;;;;14.97;88.53;98023.34;4160104;28;20667;-82
2023/05/07 00:55:29;;;;;;;5.70;4.17;;;;;;;15.09;89.10;98030.97;4175648;28;21073;-82
2023/05/07 00:57:34;;;;;;;8.70;4.33;;;;;;;15.20;89.60;98030.94;4169124;28;20686;-82
2023/05/07 00:59:37;;;;;;;6.97;3.93;;;;;;;15.12;90.05;98022.81;4162347;28;20664;-82
2023/05/07 01:01:42;;;;;;;4.57;4.07;;;;;;;15.15;88.57;98022.56;4156799;28;20624;-82
2023/05/07 01:03:46;;;;;;;4.90;4.40;;;;;;;15.16;89.69;98024.22;4163660;28;20672;-82
2023/05/07 01:05:51;;;;;;;8.40;4.60;;;;;;;15.17;88.35;98018.06;4175852;28;20765;-82
2023/05/07 01:07:55;;;;;;;5.07;3.70;;;;;;;15.18;87.54;98020.53;4160193;28;21213;-82
2023/05/07 01:09:59;;;;;;;4.20;3.70;;;;;;;15.19;87.17;98021.38;4167382;28;20644;-82
2023/05/07 01:12:04;;;;;;;4.73;3.93;;;;;;;15.14;88.17;98020.91;4173681;28;20636;-82
2023/05/07 01:14:08;;;;;;;4.30;3.90;;;;;;;15.05;87.91;98019.09;4175912;28;20631;-82
2023/05/07 01:16:12;;;;;;;4.27;3.87;;;;;;;15.01;87.64;98020.31;4170586;28;20641;-82
2023/05/07 01:18:17;;;;;;;15.10;4.43;;;;;;;15.01;88.16;98028.19;4151789;28;20640;-82
2023/05/07 01:20:21;;;;;;;5.13;3.70;;;;;;;15.00;88.78;98023.91;4173136;28;20692;-82
2023/05/07 01:22:32;;;;;;;9.23;4.17;;;;;;;15.04;90.18;98021.84;4161853;28;20628;-82
2023/05/07 01:24:37;;;;;;;5.50;4.30;;;;;;;14.97;88.37;98020.72;4171035;28;20729;-82
2023/05/07 01:26:43;;;;;;;4.70;4.30;;;;;;;14.96;89.26;98017.25;4171465;28;20738;-82
2023/05/07 01:28:50;;;;;;;5.30;4.10;;;;;;;14.91;88.16;98018.63;4158532;28;20644;-82
2023/05/07 01:30:56;;;;;;;4.27;3.87;;;;;;;14.87;89.69;98011.94;4173269;28;21199;-81
2023/05/07 01:33:03;;;;;;;7.63;4.03;;;;;;;14.84;88.43;98020.94;4175401;28;20710;-82
2023/05/07 01:35:12;;;;;;;4.30;3.90;;;;;;;14.78;89.02;98018.03;4176511;28;21203;-83
2023/05/07 01:37:16;;;;;;;5.20;4.27;;;;;;;14.73;90.03;98014.94;4154797;28;20642;-82
2023/05/07 01:39:21;;;;;;;6.10;3.80;;;;;;;14.73;90.53;98015.78;4171190;28;20690;-82
2023/05/07 01:41:25;;;;;;;7.40;4.03;;;;;;;14.71;90.82;98015.06;4168970;28;20636;-82
2023/05/07 01:43:29;;;;;;;5.83;4.30;;;;;;;14.71;90.68;98007.19;4157233;28;20652;-82
2023/05/07 01:45:33;;;;;;;8.30;4.70;;;;;;;14.69;90.03;98014.38;4155832;28;21038;-82
2023/05/07 01:47:37;;;;;;;6.23;4.53;;;;;;;14.65;89.24;98012.97;4165542;28;20705;-82
2023/05/07 01:49:43;;;;;;;4.47;4.07;;;;;;;14.62;89.78;98008.00;4157033;28;20644;-82
2023/05/07 01:51:47;;;;;;;7.10;4.60;;;;;;;14.65;89.91;98006.91;4174613;28;21206;-82
2023/05/07 01:53:51;;;;;;;4.70;4.30;;;;;;;14.65;89.74;98012.16;4168713;28;20647;-82
2023/05/07 01:55:57;;;;;;;8.10;4.80;;;;;;;14.62;89.95;98013.25;4174573;28;20632;-82
2023/05/07 01:58:01;;;;;;;4.80;4.00;;;;;;;14.57;90.54;98017.25;4172637;28;21018;-82
2023/05/07 02:00:06;;;;;;;4.43;4.03;;;;;;;14.57;91.10;98016.38;4172609;28;20643;-82
2023/05/07 02:02:17;;;;;;;7.43;5.00;;;;;;;14.56;90.54;98017.38;4169046;28;20640;-82
2023/05/07 02:04:23;;;;;;;5.87;4.40;;;;;;;14.56;89.87;98018.19;4173868;28;20647;-82
2023/05/07 02:06:27;;;;;;;4.60;4.20;;;;;;;14.56;90.82;98012.13;4159069;28;20663;-82
2023/05/07 02:08:36;;;;;;;4.77;4.10;;;;;;;14.55;90.83;98005.19;4149975;28;20678;-82
2023/05/07 02:10:40;;;;;;;5.47;4.60;;;;;;;14.53;91.53;98007.13;4152954;28;20674;-82
2023/05/07 02:12:45;;;;;;;4.70;4.20;;;;;;;14.53;90.55;98009.75;4149497;28;20775;-82
2023/05/07 02:14:49;;;;;;;4.60;4.20;;;;;;;14.54;91.16;98008.78;4150323;28;20968;-82
2023/05/07 02:16:52;;;;;;;7.43;4.30;;;;;;;14.55;91.45;98008.63;4151352;28;20744;-82
2023/05/07 02:18:56;;;;;;;4.87;4.37;;;;;;;14.54;91.11;98011.41;4167667;28;20695;-82
2023/05/07 02:21:00;;;;;;;6.60;4.40;;;;;;;14.52;91.41;98014.16;4155225;28;21242;-82
2023/05/07 02:23:03;;;;;;;5.93;4.60;;;;;;;14.53;90.53;98015.00;4154159;28;20642;-82
2023/05/07 02:25:08;;;;;;;4.60;4.20;;;;;;;14.52;90.36;98018.59;4169594;28;20643;-82
2023/05/07 02:27:11;;;;;;;8.00;4.40;;;;;;;14.50;91.32;98020.50;4158058;28;20651;-82
2023/05/07 02:29:17;;;;;;;4.43;4.03;;;;;;;14.48;90.35;98014.53;4170718;28;20657;-82
2023/05/07 02:31:21;;;;;;;4.70;4.23;;;;;;;14.47;90.88;98013.72;4167646;28;20650;-82
2023/05/07 02:33:25;;;;;;;5.50;4.70;;;;;;;14.42;91.80;98012.47;4158453;28;20621;-82
2023/05/07 02:35:29;;;;;;;5.40;4.20;;;;;;;14.35;91.18;98011.31;4154600;28;20688;-82
2023/05/07 02:37:33;;;;;;;5.40;4.90;;;;;;;14.33;90.61;98024.56;4152302;28;20683;-82
2023/05/07 02:39:37;;;;;;;6.00;4.63;;;;;;;14.33;90.39;98015.88;4150102;28;20756;-82
2023/05/07 02:41:40;;;;;;;5.67;5.17;;;;;;;14.31;90.81;98016.00;4173465;28;20635;-82
2023/05/07 02:43:44;;;;;;;5.07;4.40;;;;;;;14.30;91.44;98021.38;4174258;28;20631;-82
2023/05/07 02:45:50;;;;;;;4.83;4.40;;;;;;;14.28;90.91;98023.28;4156545;28;20615;-82
2023/05/07 02:47:54;;;;;;;6.83;4.37;;;;;;;14.25;90.77;98029.63;4169193;28;20707;-82
2023/05/07 02:49:58;;;;;;;5.97;4.67;;;;;;;14.22;91.05;98029.88;4154376;28;20717;-82
2023/05/07 02:52:03;;;;;;;4.30;3.93;;;;;;;14.19;91.38;98031.91;4173053;28;20707;-82
2023/05/07 02:54:07;;;;;;;8.87;4.67;;;;;;;14.16;91.10;98021.69;4160324;28;20641;-82
2023/05/07 02:56:10;;;;;;;7.33;4.80;;;;;;;14.13;91.23;98019.31;4151238;28;21310;-81
2023/05/07 02:58:15;;;;;;;5.60;4.80;;;;;;;14.10;91.05;98014.31;4160338;28;20707;-82
2023/05/07 03:00:20;;;;;;;6.50;4.40;;;;;;;14.09;90.91;98014.44;4158820;28;20653;-82
2023/05/07 03:02:44;;;;;;;6.20;4.63;;;;;;;14.07;91.40;98019.81;4175874;28;21067;-82
2023/05/07 03:04:48;;;;;;;5.10;4.30;;;;;;;14.05;91.32;98010.44;4155421;28;20641;-82
2023/05/07 03:06:51;;;;;;;12.43;4.40;;;;;;;14.05;91.39;98021.75;4170012;28;20659;-82
2023/05/07 03:08:54;;;;;;;5.67;4.40;;;;;;;14.05;91.19;98023.53;4170759;28;20696;-82
2023/05/07 03:10:57;;;;;;;5.50;5.00;;;;;;;14.03;91.65;98018.41;4170927;28;20639;-82
2023/05/07 03:13:02;;;;;;;5.30;4.30;;;;;;;14.03;91.50;98018.41;4156551;28;20636;-82
2023/05/07 03:15:06;;;;;;;4.77;4.23;;;;;;;14.01;91.78;98004.59;4173879;28;20640;-82
2023/05/07 03:17:09;;;;;;;4.53;4.00;;;;;;;13.99;91.26;98006.50;4170154;28;20763;-82
2023/05/07 03:19:14;;;;;;;5.13;4.40;;;;;;;13.99;91.98;98003.88;4154815;28;20637;-82
2023/05/07 03:21:17;;;;;;;6.00;4.20;;;;;;;13.95;91.47;97999.84;4173660;28;20635;-82
2023/05/07 03:23:20;;;;;;;5.13;4.73;;;;;;;13.93;91.80;97999.13;4175066;28;21442;-82
2023/05/07 03:25:26;;;;;;;8.03;5.07;;;;;;;13.92;91.50;98004.50;4155994;28;20627;-82
2023/05/07 03:27:29;;;;;;;5.20;4.70;;;;;;;13.91;91.93;98006.31;4166259;28;20631;-82
2023/05/07 03:29:33;;;;;;;5.57;5.00;;;;;;;13.91;91.91;98003.69;4153916;28;20653;-82
2023/05/07 03:31:36;;;;;;;5.03;4.63;;;;;;;13.91;91.99;98002.84;4156200;28;20632;-82
2023/05/07 03:33:51;;;;;;;5.40;4.93;;;;;;;13.88;92.04;98001.31;4174387;28;20737;-82
2023/05/07 03:35:55;;;;;;;6.63;5.13;;;;;;;13.87;92.27;98004.88;4166793;28;21215;-81
2023/05/07 03:38:02;;;;;;;8.17;4.60;;;;;;;13.83;91.81;98000.88;4158546;28;20631;-82
2023/05/07 03:40:09;;;;;;;5.70;4.50;;;;;;;13.81;92.06;98004.56;4160586;28;20631;-82
2023/05/07 03:42:21;;;;;;;6.37;4.70;;;;;;;13.80;91.92;98005.50;4155066;28;21284;-82
2023/05/07 03:44:27;;;;;;;6.17;4.73;;;;;;;13.79;92.08;98001.25;4154604;28;20648;-82
2023/05/07 03:46:30;;;;;;;5.60;5.10;;;;;;;13.79;92.07;97996.00;4174314;28;20672;-82
2023/05/07 03:48:33;;;;;;;5.50;5.00;;;;;;;13.78;92.10;98005.63;4173872;28;20646;-82
2023/05/07 03:50:36;;;;;;;5.40;4.80;;;;;;;13.76;92.06;97994.47;4176510;28;20634;-82
2023/05/07 03:52:43;;;;;;;6.50;5.00;;;;;;;13.75;92.16;98002.44;4155414;28;20628;-82
2023/05/07 03:54:46;;;;;;;5.57;5.00;;;;;;;13.73;92.20;98007.81;4174272;28;20665;-82
2023/05/07 03:56:51;;;;;;;5.67;4.80;;;;;;;13.71;92.05;97998.41;4154033;28;20751;-82
2023/05/07 03:58:54;;;;;;;5.93;5.27;;;;;;;13.68;92.20;98006.50;4179835;28;21200;-82
2023/05/07 04:00:57;;;;;;;5.40;4.60;;;;;;;13.65;91.79;97996.28;4173526;28;21054;-82
2023/05/07 04:03:04;;;;;;;9.40;5.40;;;;;;;13.60;92.01;98001.06;4164328;28;21319;-82
2023/05/07 04:05:08;;;;;;;6.33;4.57;;;;;;;13.60;92.25;98003.69;4160438;28;20655;-82
2023/05/07 04:07:14;;;;;;;10.27;4.73;;;;;;;13.62;92.68;98006.19;4158769;28;20663;-82
2023/05/07 04:09:21;;;;;;;6.63;4.60;;;;;;;13.64;92.83;98010.38;4158926;28;20695;-82
2023/05/07 04:11:25;;;;;;;5.67;4.73;;;;;;;13.66;93.03;98017.13;4161050;28;20992;-82
2023/05/07 04:13:28;;;;;;;4.73;4.33;;;;;;;13.69;93.16;98016.06;4171635;28;20634;-82
2023/05/07 04:15:31;;;;;;;6.47;4.50;;;;;;;13.71;93.08;98022.84;4150710;28;21612;-82
2023/05/07 04:17:34;;;;;;;5.60;4.97;;;;;;;13.74;92.83;98021.75;4158874;28;20648;-82
2023/05/07 04:19:38;;;;;;;5.40;4.67;;;;;;;13.75;92.60;98023.41;4156592;28;20637;-82
2023/05/07 04:21:41;;;;;;;7.03;4.80;;;;;;;13.74;92.45;98032.22;4173212;28;20635;-82
2023/05/07 04:23:45;;;;;;;6.83;4.90;;;;;;;13.73;91.44;98026.16;4171759;28;20771;-82
2023/05/07 04:25:51;;;;;;;5.00;4.50;;;;;;;13.76;92.45;98025.91;4173642;28;20609;-82
2023/05/07 04:27:59;;;;;;;5.77;4.77;;;;;;;13.78;92.69;98029.22;4159101;28;20643;-82
2023/05/07 04:30:06;;;;;;;5.33;4.83;;;;;;;13.82;92.70;98040.31;4160467;28;21125;-82
2023/05/07 04:32:13;;;;;;;5.27;4.77;;;;;;;13.83;92.55;98045.44;4176815;28;20640;-82
2023/05/07 04:34:17;;;;;;;5.73;5.13;;;;;;;13.86;92.78;98045.19;4160684;28;20639;-82
2023/05/07 04:36:21;;;;;;;5.80;5.10;;;;;;;13.90;92.98;98062.31;4170505;28;20638;-82
2023/05/07 04:38:34;;;;;;;5.40;4.90;;;;;;;13.90;91.98;98056.25;4174707;28;20699;-82
2023/05/07 04:40:38;;;;;;;8.93;4.70;;;;;;;13.87;91.91;98052.06;4176887;28;20630;-82
2023/05/07 04:42:45;;;;;;;6.97;4.77;;;;;;;13.84;93.26;98047.06;4168815;28;20644;-82
2023/05/07 04:44:48;;;;;;;6.73;5.20;;;;;;;13.91;92.46;98047.44;4174018;28;20631;-82
2023/05/07 04:46:52;;;;;;;7.83;4.90;;;;;;;13.92;93.17;98042.06;4171509;28;20638;-81
2023/05/07 04:48:55;;;;;;;5.13;4.63;;;;;;;13.96;93.49;98048.69;4159413;28;20678;-82
2023/05/07 04:50:59;;;;;;;5.73;5.20;;;;;;;14.00;93.54;98050.13;4172718;28;20693;-82
2023/05/07 04:53:02;;;;;;;6.40;4.70;;;;;;;14.05;93.56;98047.16;4171705;28;20651;-82
2023/05/07 04:55:06;;;;;;;10.53;7.60;;;;;;;14.10;92.75;98051.03;4171332;28;20631;-82
2023/05/07 04:57:13;;;;;;;6.90;5.60;;;;;;;14.12;92.59;98046.53;4154485;28;20637;-82
2023/05/07 04:59:18;;;;;;;6.10;5.00;;;;;;;14.12;92.03;98053.53;4173183;28;21155;-82
2023/05/07 05:01:22;;;;;;;5.63;5.03;;;;;;;14.16;91.88;98055.78;4171360;28;20639;-82
2023/05/07 05:03:25;;;;;;;7.30;5.20;;;;;;;14.22;91.50;98052.66;4168956;28;20663;-82
2023/05/07 05:05:29;;;;;;;14.30;5.50;;;;;;;14.29;91.53;98061.69;4173127;28;20667;-82
2023/05/07 05:07:32;;;;;;;5.47;4.53;;;;;;;14.36;91.02;98065.47;4171508;28;20643;-82
2023/05/07 05:09:35;;;;;;;5.97;5.20;;;;;;;14.45;90.66;98070.75;4160519;28;21085;-82
2023/05/07 05:11:39;;;;;;;6.87;5.10;;;;;;;14.52;91.61;98078.94;4161263;28;21262;-81
2023/05/07 05:13:43;;;;;;;8.00;5.50;;;;;;;14.61;90.72;98079.84;4174188;28;20704;-82
2023/05/07 05:15:53;;;;;;;5.60;4.87;;;;;;;14.69;91.78;98077.41;4170651;28;20738;-82
2023/05/07 05:17:56;;;;;;;6.13;4.83;;;;;;;14.77;91.16;98082.00;4174228;28;20678;-82
2023/05/07 05:20:03;;;;;;;5.10;4.60;;;;;;;14.84;91.98;98081.34;4149245;28;20988;-81
2023/05/07 05:22:07;;;;;;;5.00;4.47;;;;;;;14.87;91.56;98077.59;4174962;28;20634;-82
2023/05/07 05:24:10;;;;;;;5.53;5.03;;;;;;;14.90;91.36;98083.44;4168453;28;20624;-82
2023/05/07 05:26:14;;;;;;;5.80;5.30;;;;;;;14.98;90.18;98094.13;4152233;28;20639;-82
2023/05/07 05:28:17;;;;;;;5.50;5.00;;;;;;;15.05;91.28;98091.78;4171469;28;20674;-82
2023/05/07 05:30:20;;;;;;;5.00;4.60;;;;;;;15.06;89.94;98082.97;4176315;28;21240;-81
2023/05/07 05:32:26;;;;;;;5.73;5.13;;;;;;;15.08;89.86;98077.44;4164722;28;20639;-82
2023/05/07 05:34:32;;;;;;;5.80;4.80;;;;;;;15.12;89.95;98081.47;4151551;28;20625;-82
2023/05/07 05:36:36;;;;;;;5.33;4.77;;;;;;;15.11;89.01;98084.25;4152306;28;20636;-82
2023/05/07 05:38:39;;;;;;;7.53;5.50;;;;;;;15.17;90.18;98095.06;4172863;28;20686;-82
2023/05/07 05:40:43;;;;;;;5.87;4.50;;;;;;;15.18;89.08;98090.63;4168258;28;20646;-82
2023/05/07 05:42:47;;;;;;;5.17;4.50;;;;;;;15.33;88.19;98084.88;4173754;28;20635;-82
2023/05/07 05:44:51;;;;;;;5.30;4.47;;;;;;;15.62;88.34;98091.88;4170684;28;20721;-83
2023/05/07 05:46:57;;;;;;;5.20;4.50;;;;;;;15.91;87.37;98103.28;4170098;28;20631;-82
2023/05/07 05:49:02;;;;;;;5.27;4.50;;;;;;;16.24;87.36;98105.53;4169832;28;20647;-82
2023/05/07 05:51:06;;;;;;;5.30;4.80;;;;;;;16.53;86.68;98110.63;4157841;28;21038;-82
2023/05/07 05:53:09;;;;;;;5.90;4.43;;;;;;;16.80;85.27;98113.34;4157844;28;20669;-82
2023/05/07 05:55:14;;;;;;;5.23;4.23;;;;;;;16.99;83.28;98094.88;4158393;28;20639;-82
2023/05/07 05:57:17;;;;;;;5.47;4.20;;;;;;;17.32;82.46;98107.50;4165021;28;20634;-82
2023/05/07 05:59:21;;;;;;;4.60;3.23;;;;;;;17.63;84.31;98110.53;4176146;28;20635;-82
2023/05/07 06:01:24;;;;;;;3.80;3.23;;;;;;;17.96;83.17;98110.75;4170889;28;20638;-82
2023/05/07 06:03:29;;;;;;;5.50;4.40;;;;;;;18.33;81.53;98123.84;4158448;28;20660;-82
2023/05/07 06:05:37;;;;;;;5.70;4.33;;;;;;;18.59;80.18;98123.75;4174479;28;21011;-81
2023/05/07 06:07:41;;;;;;;4.93;4.47;;;;;;;18.87;79.92;98129.72;4173829;28;20652;-82
2023/05/07 06:09:44;;;;;;;5.70;3.93;;;;;;;19.12;78.67;98124.47;4176441;28;20676;-82
2023/05/07 06:11:48;;;;;;;4.30;3.77;;;;;;;19.33;78.23;98124.94;4171307;28;21278;-82
2023/05/07 06:13:51;;;;;;;5.60;4.00;;;;;;;19.36;77.31;98114.84;4167275;28;20700;-82
2023/05/07 06:15:54;;;;;;;4.43;3.80;;;;;;;19.46;77.90;98108.47;4168319;28;20680;-82
2023/05/07 06:17:57;;;;;;;4.70;4.20;;;;;;;19.62;77.30;98103.25;4168055;28;20638;-82
2023/05/07 06:20:00;;;;;;;4.97;4.07;;;;;;;19.60;76.79;98105.19;4168006;28;21199;-82
2023/05/07 06:22:05;;;;;;;3.60;3.30;;;;;;;19.75;77.27;98116.84;4153433;28;20639;-82
2023/05/07 06:24:10;;;;;;;4.20;3.50;;;;;;;19.95;77.44;98132.34;4172482;28;20675;-82
2023/05/07 06:26:14;;;;;;;5.57;4.27;;;;;;;20.14;77.13;98136.50;4174636;28;20633;-82
2023/05/07 06:28:21;;;;;;;4.37;3.97;;;;;;;20.32;76.66;98128.25;4171889;28;20654;-87
2023/05/07 06:30:26;;;;;;;4.47;4.07;;;;;;;20.60;75.96;98136.75;4179649;28;20693;-87
2023/05/07 06:32:30;;;;;;;3.83;3.53;;;;;;;20.68;74.34;98132.28;4185028;28;20664;-87
2023/05/07 06:34:34;;;;;;;5.87;3.97;;;;;;;20.90;74.10;98139.59;4170092;28;20669;-87
2023/05/07 06:36:37;;;;;;;6.87;4.03;;;;;;;21.16;74.15;98143.69;4174245;28;21226;-87
2023/05/07 06:38:50;;;;;;;4.17;3.60;;;;;;;21.42;73.54;98142.47;4162518;28;20676;-87
2023/05/07 06:40:55;;;;;;;5.40;3.50;;;;;;;21.61;72.60;98147.41;4167683;28;20630;-87
2023/05/07 06:42:59;;;;;;;4.07;3.67;;;;;;;21.62;71.84;98146.41;4159038;28;20631;-87
2023/05/07 06:45:23;;;;;;;3.93;3.63;;;;;;;21.63;72.18;98141.94;4159397;28;20680;-87
2023/05/07 06:47:28;;;;;;;3.73;3.40;;;;;;;21.67;72.37;98135.28;4172000;28;20596;-87
2023/05/07 06:49:32;;;;;;;3.83;3.40;;;;;;;21.69;72.26;98131.44;4169229;28;21249;-87
2023/05/07 06:51:35;;;;;;;3.80;3.30;;;;;;;21.73;72.63;98143.38;4165077;28;20654;-87
2023/05/07 06:53:39;;;;;;;5.10;3.77;;;;;;;21.76;72.60;98148.34;4151802;28;20638;-87
2023/05/07 06:55:46;;;;;;;3.67;3.37;;;;;;;21.85;69.75;98139.34;4171912;28;20624;-87
2023/05/07 06:57:51;;;;;;;4.73;4.33;;;;;;;21.78;70.26;98128.59;4158520;28;20646;-87
2023/05/07 06:59:57;;;;;;;4.87;3.57;;;;;;;22.08;75.59;98146.34;4158291;28;20629;-87
2023/05/07 07:02:00;;;;;;;4.13;3.60;;;;;;;22.44;73.12;98150.16;4166347;28;20648;-87
2023/05/07 07:04:03;;;;;;;3.93;3.20;;;;;;;22.39;70.35;98147.22;4168834;28;20626;-87
2023/05/07 07:06:07;;;;;;;4.00;3.43;;;;;;;22.08;69.54;98137.56;4157804;28;20650;-87
2023/05/07 07:08:10;;;;;;;5.37;4.20;;;;;;;21.90;71.61;98135.16;4165728;28;20630;-87
2023/05/07 07:10:14;;;;;;;4.13;3.47;;;;;;;21.92;72.08;98132.31;4173037;28;20657;-87
2023/05/07 07:12:19;;;;;;;4.63;3.40;;;;;;;22.04;71.35;98137.09;4159225;28;21065;-87
2023/05/07 07:14:22;;;;;;;4.93;3.47;;;;;;;22.00;70.84;98121.69;4177554;28;21112;-87
2023/05/07 07:16:27;;;;;;;3.47;3.17;;;;;;;22.08;70.52;98116.31;4169881;28;21213;-86
2023/05/07 07:18:31;;;;;;;5.00;3.50;;;;;;;22.18;69.48;98116.94;4175891;28;20625;-86
2023/05/07 07:20:34;;;;;;;3.87;3.50;;;;;;;22.36;69.77;98115.66;4159817;28;20745;-87
2023/05/07 07:22:38;;;;;;;4.70;3.53;;;;;;;22.76;72.31;98140.94;4154929;28;20635;-87
2023/05/07 07:24:42;;;;;;;4.60;3.80;;;;;;;22.94;69.08;98136.19;4176217;28;20741;-86
2023/05/07 07:26:48;;;;;;;3.60;3.30;;;;;;;23.24;71.22;98128.06;4162404;28;20628;-87
2023/05/07 07:28:53;;;;;;;5.90;3.60;;;;;;;23.53;68.71;98140.53;4164205;28;20687;-87
2023/05/07 07:30:58;;;;;;;5.40;3.50;;;;;;;23.79;67.94;98131.09;4175155;28;21276;-87
2023/05/07 07:33:02;;;;;;;3.60;3.30;;;;;;;23.87;67.76;98133.66;4175919;28;20640;-87
2023/05/07 07:35:10;;;;;;;4.23;3.13;;;;;;;24.09;67.78;98143.38;4179413;28;20708;-87
2023/05/07 07:37:14;;;;;;;3.20;2.90;;;;;;;24.21;65.92;98143.53;4157254;28;20665;-87
2023/05/07 07:39:17;;;;;;;3.50;3.20;;;;;;;24.37;65.01;98143.34;4179284;28;21046;-87
2023/05/07 07:41:23;;;;;;;4.17;2.90;;;;;;;24.41;65.07;98135.78;4164048;28;20684;-87
2023/05/07 07:43:26;;;;;;;3.00;2.70;;;;;;;24.23;64.89;98136.16;4152268;28;20702;-87
2023/05/07 07:45:31;;;;;;;3.80;3.00;;;;;;;23.89;66.68;98127.16;4170718;28;20709;-87
2023/05/07 07:47:36;;;;;;;3.87;3.33;;;;;;;23.56;69.09;98122.38;4165240;28;20625;-87
2023/05/07 07:49:39;;;;;;;5.30;3.47;;;;;;;23.35;68.49;98116.13;4178062;28;21203;-87
2023/05/07 07:51:44;;;;;;;3.03;2.73;;;;;;;23.40;67.82;98121.72;4180673;28;20719;-86
2023/05/07 07:53:49;;;;;;;3.23;2.90;;;;;;;23.55;67.48;98133.22;4169884;28;20667;-87
2023/05/07 07:55:53;;;;;;;3.30;3.00;;;;;;;23.91;68.05;98138.44;4158512;28;20633;-87
2023/05/07 07:58:04;;;;;;;4.43;3.60;;;;;;;24.20;67.79;98136.53;4157210;28;20679;-87
2023/05/07 08:00:09;;;;;;;3.70;3.33;;;;;;;24.54;67.78;98142.06;4172578;28;20675;-87
2023/05/07 08:02:20;;;;;;;3.10;2.80;;;;;;;24.84;67.47;98146.28;4173439;28;21997;-87
2023/05/07 08:04:25;;;;;;;6.10;3.30;;;;;;;25.13;67.71;98142.44;4159410;28;20656;-87
2023/05/07 08:06:30;;;;;;;3.63;3.00;;;;;;;25.15;67.29;98145.75;4157285;28;20758;-87
2023/05/07 08:08:33;;;;;;;4.27;2.83;;;;;;;24.99;66.74;98141.69;4174575;28;20736;-87
2023/05/07 08:10:38;;;;;;;4.13;2.97;;;;;;;24.79;66.94;98148.66;4152798;28;20619;-87
2023/05/07 08:12:49;;;;;;;4.10;3.10;;;;;;;24.57;67.52;98132.84;4170397;28;20717;-87
2023/05/07 08:14:52;;;;;;;4.23;3.03;;;;;;;24.34;66.09;98133.03;4172687;28;20633;-86
2023/05/07 08:16:56;;;;;;;4.37;3.23;;;;;;;24.08;65.67;98131.06;4170679;28;21189;-86
2023/05/07 08:19:00;;;;;;;3.30;3.00;;;;;;;23.86;67.31;98119.53;4173571;28;21193;-86
2023/05/07 08:21:04;;;;;;;3.20;2.90;;;;;;;23.74;68.71;98122.84;4155456;28;20709;-87
2023/05/07 08:23:08;;;;;;;3.60;3.07;;;;;;;23.65;72.00;98129.28;4157425;28;20743;-87
2023/05/07 08:25:13;;;;;;;3.83;3.07;;;;;;;23.55;72.58;98128.69;4161501;28;21204;-87
2023/05/07 08:27:16;;;;;;;3.43;2.80;;;;;;;23.45;72.20;98127.31;4172484;28;20733;-87
2023/05/07 08:29:20;;;;;;;3.50;3.20;;;;;;;23.40;72.18;98127.88;4171418;28;21062;-86
2023/05/07 08:31:23;;;;;;;4.40;3.13;;;;;;;23.41;73.13;98128.69;4171244;28;20680;-87
2023/05/07 08:33:26;;;;;;;3.07;2.87;;;;;;;23.50;72.77;98128.44;4175474;28;20691;-87
2023/05/07 08:35:31;;;;;;;3.20;2.87;;;;;;;23.78;72.23;98124.13;4175526;28;20626;-86
2023/05/07 08:37:34;;;;;;;3.40;3.10;;;;;;;24.03;72.50;98131.63;4178589;28;20646;-87
2023/05/07 08:39:38;;;;;;;3.90;3.13;;;;;;;24.18;67.22;98135.91;4160568;28;20726;-87
2023/05/07 08:41:46;;;;;;;4.20;3.10;;;;;;;24.01;66.44;98120.31;4157861;28;20620;-87
2023/05/07 08:43:50;;;;;;;6.80;3.23;;;;;;;23.82;67.42;98122.75;4171660;28;20632;-87
2023/05/07 08:45:55;;;;;;;4.00;3.27;;;;;;;23.58;66.85;98116.84;4159340;28;20656;-87
2023/05/07 08:48:04;;;;;;;4.40;2.63;;;;;;;23.58;67.50;98106.19;4174378;28;20634;-87
2023/05/07 08:50:11;;;;;;;4.07;3.20;;;;;;;23.73;67.28;98116.69;4186921;28;21226;-87
2023/05/07 08:52:17;;;;;;;3.03;2.73;;;;;;;23.96;68.69;98128.03;4177608;28;20653;-87
2023/05/07 08:54:21;;;;;;;3.50;3.03;;;;;;;24.11;65.52;98131.50;4157006;28;20673;-87
2023/05/07 08:56:24;;;;;;;4.77;3.10;;;;;;;24.07;63.95;98129.41;4172221;28;20636;-87
2023/05/07 08:58:29;;;;;;;4.27;2.80;;;;;;;24.09;65.10;98132.72;4165521;28;20637;-87
2023/05/07 09:00:33;;;;;;;3.93;2.87;;;;;;;24.26;65.49;98129.63;4175627;28;20664;-87
2023/05/07 09:02:38;;;;;;;3.03;2.80;;;;;;;24.53;68.52;98132.41;4153872;28;20740;-87
2023/05/07 09:04:43;;;;;;;4.03;2.67;;;;;;;24.68;65.12;98139.31;4155804;28;20632;-87
2023/05/07 09:06:47;;;;;;;4.93;2.60;;;;;;;24.77;67.70;98140.03;4174421;28;21102;-87
2023/05/07 09:08:53;;;;;;;3.03;2.83;;;;;;;24.65;66.89;98130.88;4159608;28;20634;-87
2023/05/07 09:10:58;;;;;;;2.80;2.60;;;;;;;24.53;67.78;98127.06;4170020;28;21238;-87
2023/05/07 09:13:01;;;;;;;3.77;2.87;;;;;;;24.40;67.60;98129.63;4169977;28;20767;-87
2023/05/07 09:15:07;;;;;;;3.67;2.67;;;;;;;24.35;64.54;98123.19;4175073;28;21239;-87
2023/05/07 09:17:10;;;;;;;3.37;2.90;;;;;;;24.33;65.53;98120.72;4161485;28;20626;-87
2023/05/07 09:19:14;;;;;;;3.30;2.80;;;;;;;24.34;67.07;98130.38;4174501;28;21079;-87
2023/05/07 09:21:22;;;;;;;3.00;2.70;;;;;;;24.42;65.71;98122.25;4170054;28;20638;-87
2023/05/07 09:23:27;;;;;;;4.03;3.40;;;;;;;24.45;65.94;98124.53;4151561;28;20713;-87
2023/05/07 09:25:32;;;;;;;2.80;2.50;;;;;;;24.49;66.53;98127.63;4172282;28;20648;-87
2023/05/07 09:27:42;;;;;;;3.47;2.70;;;;;;;24.54;64.98;98123.41;4168612;28;20649;-87
2023/05/07 09:29:45;;;;;;;3.67;2.37;;;;;;;24.73;66.93;98128.94;4157659;28;20686;-87
2023/05/07 09:31:50;;;;;;;4.17;2.80;;;;;;;24.97;65.77;98133.84;4170087;28;21582;-87
2023/05/07 09:33:55;;;;;;;3.00;2.70;;;;;;;25.22;68.21;98125.25;4160045;28;20717;-87
2023/05/07 09:36:03;;;;;;;2.97;2.20;;;;;;;25.38;62.88;98124.94;4159133;28;21061;-88
2023/05/07 09:38:08;;;;;;;3.47;2.57;;;;;;;25.37;61.77;98125.97;4152241;28;20679;-87
2023/05/07 09:40:21;;;;;;;3.80;2.67;;;;;;;25.38;61.30;98118.75;4167979;28;20653;-88
2023/05/07 09:42:27;;;;;;;3.30;2.60;;;;;;;25.30;60.53;98111.75;4168467;28;20627;-88
2023/05/07 09:44:34;;;;;;;3.50;2.63;;;;;;;25.27;60.66;98116.66;4160793;28;20631;-88
2023/05/07 09:46:40;;;;;;;4.00;2.90;;;;;;;25.39;60.56;98121.25;4168279;28;20659;-88
2023/05/07 09:48:53;;;;;;;5.07;2.70;;;;;;;25.52;59.54;98118.66;4159509;28;21512;-88